createdAt,value
2019-05-22T00:00:29.632Z,22.79
2019-05-22T00:01:05.118Z,22.79
2019-05-22T00:01:31.392Z,22.79
2019-05-22T00:01:57.702Z,22.78
2019-05-22T00:02:26.600Z,22.77
2019-05-22T00:02:52.011Z,22.75
2019-05-22T00:03:27.065Z,22.75
2019-05-22T00:03:58.942Z,22.73
2019-05-22T00:04:26.120Z,22.72
2019-05-22T00:04:53.655Z,22.71
2019-05-22T00:05:20.198Z,22.69
2019-05-22T00:05:45.854Z,22.69
2019-05-22T00:06:11.439Z,22.68
2019-05-22T00:06:37.729Z,22.67
2019-05-22T00:07:03.677Z,22.67
2019-05-22T00:07:29.233Z,22.66
2019-05-22T00:07:55.494Z,22.65
2019-05-22T00:08:21.274Z,22.65
2019-05-22T00:08:47.663Z,22.65
2019-05-22T00:09:14.429Z,22.65
2019-05-22T00:09:40.631Z,22.64
2019-05-22T00:10:07.857Z,22.64
2019-05-22T00:10:34.076Z,22.65
2019-05-22T00:11:00.223Z,22.64
2019-05-22T00:11:26.168Z,22.64
2019-05-22T00:11:53.047Z,22.65
2019-05-22T00:12:17.764Z,22.64
2019-05-22T00:12:46.557Z,22.63
2019-05-22T00:13:12.499Z,22.63
2019-05-22T00:13:38.937Z,22.62
2019-05-22T00:14:05.299Z,22.62
2019-05-22T00:14:31.608Z,22.62
2019-05-22T00:14:56.874Z,22.62
2019-05-22T00:15:23.448Z,22.61
2019-05-22T00:15:49.818Z,22.62
2019-05-22T00:16:16.013Z,22.60
2019-05-22T00:16:42.653Z,22.60
2019-05-22T00:17:07.846Z,22.61
2019-05-22T00:17:32.526Z,22.60
2019-05-22T00:17:58.876Z,22.60
2019-05-22T00:18:25.844Z,22.60
2019-05-22T00:18:52.416Z,22.60
2019-05-22T00:19:18.856Z,22.59
2019-05-22T00:19:45.118Z,22.58
2019-05-22T00:20:12.051Z,22.59
2019-05-22T00:20:38.031Z,22.59
2019-05-22T00:21:04.392Z,22.58
2019-05-22T00:21:30.821Z,22.57
2019-05-22T00:22:02.995Z,22.59
2019-05-22T00:22:32.294Z,22.57
2019-05-22T00:22:57.137Z,22.56
2019-05-22T00:23:23.403Z,22.57
2019-05-22T00:23:49.708Z,22.57
2019-05-22T00:24:16.225Z,22.57
2019-05-22T00:24:42.328Z,22.57
2019-05-22T00:25:09.278Z,22.57
2019-05-22T00:25:36.401Z,22.56
2019-05-22T00:26:01.622Z,22.58
2019-05-22T00:26:26.788Z,22.56
2019-05-22T00:26:51.995Z,22.58
2019-05-22T00:27:18.654Z,22.58
2019-05-22T00:27:45.040Z,22.58
2019-05-22T00:28:10.682Z,22.59
2019-05-22T00:28:37.499Z,22.58
2019-05-22T00:29:04.365Z,22.57
2019-05-22T00:29:31.430Z,22.58
2019-05-22T00:29:57.526Z,22.57
2019-05-22T00:30:23.795Z,22.59
2019-05-22T00:30:50.177Z,22.58
2019-05-22T00:31:16.365Z,22.55
2019-05-22T00:31:41.718Z,22.55
2019-05-22T00:32:08.037Z,22.56
2019-05-22T00:32:34.472Z,22.57
2019-05-22T00:33:01.066Z,22.56
2019-05-22T00:33:26.611Z,22.56
2019-05-22T00:33:52.532Z,22.57
2019-05-22T00:34:18.110Z,22.55
2019-05-22T00:34:43.573Z,22.55
2019-05-22T00:35:10.025Z,22.56
2019-05-22T00:35:37.559Z,22.55
2019-05-22T00:36:04.344Z,22.55
2019-05-22T00:36:30.129Z,22.55
2019-05-22T00:36:54.966Z,22.53
2019-05-22T00:37:21.238Z,22.53
2019-05-22T00:37:46.747Z,22.54
2019-05-22T00:38:12.546Z,22.54
2019-05-22T00:38:37.861Z,22.54
2019-05-22T00:39:04.311Z,22.53
2019-05-22T00:39:29.544Z,22.53
2019-05-22T00:39:55.101Z,22.52
2019-05-22T00:40:20.724Z,22.53
2019-05-22T00:40:47.054Z,22.54
2019-05-22T00:41:12.571Z,22.52
2019-05-22T00:41:38.846Z,22.53
2019-05-22T00:42:03.754Z,22.53
2019-05-22T00:42:29.653Z,22.53
2019-05-22T00:43:04.099Z,22.53
2019-05-22T00:43:41.600Z,22.53
2019-05-22T00:44:06.278Z,22.53
2019-05-22T00:44:32.594Z,22.53
2019-05-22T00:44:59.627Z,22.53
2019-05-22T00:45:25.418Z,22.52
2019-05-22T00:45:50.267Z,22.52
2019-05-22T00:46:19.546Z,22.52
2019-05-22T00:46:45.719Z,22.53
2019-05-22T00:47:12.702Z,22.53
2019-05-22T00:47:38.040Z,22.52
2019-05-22T00:48:03.941Z,22.52
2019-05-22T00:48:30.218Z,22.52
2019-05-22T00:48:55.449Z,22.52
2019-05-22T00:49:22.099Z,22.52
2019-05-22T00:49:47.472Z,22.51
2019-05-22T00:50:21.398Z,22.52
2019-05-22T00:50:54.122Z,22.52
2019-05-22T00:51:29.158Z,22.51
2019-05-22T00:52:04.599Z,22.52
2019-05-22T00:52:31.956Z,22.51
2019-05-22T00:53:04.337Z,22.51
2019-05-22T00:53:39.358Z,22.50
2019-05-22T00:54:23.333Z,22.49
2019-05-22T00:54:52.663Z,22.48
2019-05-22T00:55:32.503Z,22.47
2019-05-22T00:56:04.581Z,22.45
2019-05-22T00:56:37.714Z,22.46
2019-05-22T00:57:07.406Z,22.43
2019-05-22T00:57:42.686Z,22.42
2019-05-22T00:58:11.939Z,22.41
2019-05-22T00:58:38.259Z,22.40
2019-05-22T00:59:07.402Z,22.39
2019-05-22T00:59:36.485Z,22.39
2019-05-22T01:00:05.556Z,22.38
2019-05-22T01:00:34.812Z,22.37
2019-05-22T01:01:04.820Z,22.38
2019-05-22T01:01:40.373Z,22.38
2019-05-22T01:02:12.486Z,22.38
2019-05-22T01:02:37.704Z,22.37
2019-05-22T01:03:03.085Z,22.38
2019-05-22T01:03:29.396Z,22.37
2019-05-22T01:03:57.204Z,22.37
2019-05-22T01:04:26.190Z,22.38
2019-05-22T01:04:52.746Z,22.38
2019-05-22T01:05:19.918Z,22.38
2019-05-22T01:05:45.132Z,22.38
2019-05-22T01:06:11.452Z,22.38
2019-05-22T01:06:37.136Z,22.38
2019-05-22T01:07:04.580Z,22.39
2019-05-22T01:07:31.301Z,22.40
2019-05-22T01:07:57.435Z,22.40
2019-05-22T01:08:22.730Z,22.41
2019-05-22T01:08:49.796Z,22.42
2019-05-22T01:09:32.673Z,22.42
2019-05-22T01:09:59.228Z,22.42
2019-05-22T01:10:25.508Z,22.43
2019-05-22T01:10:52.079Z,22.42
2019-05-22T01:11:17.300Z,22.43
2019-05-22T01:11:43.263Z,22.43
2019-05-22T01:12:13.017Z,22.42
2019-05-22T01:12:48.009Z,22.43
2019-05-22T01:13:14.582Z,22.43
2019-05-22T01:13:40.947Z,22.42
2019-05-22T01:14:06.215Z,22.42
2019-05-22T01:14:42.635Z,22.43
2019-05-22T01:15:03.862Z,22.42
2019-05-22T01:15:30.234Z,22.42
2019-05-22T01:15:56.581Z,22.42
2019-05-22T01:16:21.861Z,22.42
2019-05-22T01:16:48.308Z,22.42
2019-05-22T01:17:14.618Z,22.43
2019-05-22T01:17:40.875Z,22.43
2019-05-22T01:18:07.941Z,22.43
2019-05-22T01:18:33.026Z,22.43
2019-05-22T01:18:59.298Z,22.43
2019-05-22T01:19:24.840Z,22.42
2019-05-22T01:19:52.565Z,22.44
2019-05-22T01:20:19.018Z,22.43
2019-05-22T01:20:44.246Z,22.44
2019-05-22T01:21:11.160Z,22.44
2019-05-22T01:21:37.515Z,22.45
2019-05-22T01:22:02.216Z,22.45
2019-05-22T01:22:29.357Z,22.45
2019-05-22T01:22:59.389Z,22.45
2019-05-22T01:23:25.350Z,22.44
2019-05-22T01:23:52.109Z,22.45
2019-05-22T01:24:17.906Z,22.46
2019-05-22T01:24:43.436Z,22.46
2019-05-22T01:25:10.306Z,22.46
2019-05-22T01:25:35.886Z,22.46
2019-05-22T01:26:01.718Z,22.47
2019-05-22T01:26:27.834Z,22.47
2019-05-22T01:26:55.539Z,22.46
2019-05-22T01:27:21.030Z,22.47
2019-05-22T01:27:47.338Z,22.47
2019-05-22T01:28:13.635Z,22.47
2019-05-22T01:28:39.508Z,22.47
2019-05-22T01:29:04.856Z,22.48
2019-05-22T01:29:30.500Z,22.47
2019-05-22T01:29:57.912Z,22.48
2019-05-22T01:30:24.219Z,22.47
2019-05-22T01:30:50.864Z,22.49
2019-05-22T01:31:29.816Z,22.48
2019-05-22T01:31:56.138Z,22.48
2019-05-22T01:32:25.089Z,22.48
2019-05-22T01:32:50.425Z,22.48
2019-05-22T01:33:16.692Z,22.47
2019-05-22T01:33:48.910Z,22.47
2019-05-22T01:34:15.218Z,22.46
2019-05-22T01:34:40.311Z,22.46
2019-05-22T01:35:08.038Z,22.46
2019-05-22T01:35:40.097Z,22.46
2019-05-22T01:36:06.529Z,22.46
2019-05-22T01:36:33.235Z,22.46
2019-05-22T01:36:59.503Z,22.46
2019-05-22T01:37:28.207Z,22.45
2019-05-22T01:37:53.483Z,22.44
2019-05-22T01:38:19.195Z,22.45
2019-05-22T01:38:45.814Z,22.45
2019-05-22T01:39:15.474Z,22.44
2019-05-22T01:40:02.721Z,22.44
2019-05-22T01:40:48.777Z,22.45
2019-05-22T01:41:28.850Z,22.44
2019-05-22T01:41:55.058Z,22.44
2019-05-22T01:42:21.703Z,22.42
2019-05-22T01:42:47.995Z,22.39
2019-05-22T01:43:14.300Z,22.39
2019-05-22T01:43:40.064Z,22.38
2019-05-22T01:44:06.375Z,22.38
2019-05-22T01:44:31.424Z,22.37
2019-05-22T01:45:05.848Z,22.37
2019-05-22T01:45:25.529Z,22.37
2019-05-22T01:45:55.324Z,22.37
2019-05-22T01:46:22.347Z,22.38
2019-05-22T01:46:47.551Z,22.38
2019-05-22T01:47:16.653Z,22.38
2019-05-22T01:47:45.756Z,22.38
2019-05-22T01:48:16.868Z,22.38
2019-05-22T01:48:43.622Z,22.38
2019-05-22T01:49:10.143Z,22.38
2019-05-22T01:49:36.161Z,22.37
2019-05-22T01:50:01.799Z,22.38
2019-05-22T01:50:49.417Z,22.38
2019-05-22T01:51:16.905Z,22.39
2019-05-22T01:51:42.852Z,22.37
2019-05-22T01:52:09.316Z,22.38
2019-05-22T01:52:36.900Z,22.36
2019-05-22T01:53:04.041Z,22.36
2019-05-22T01:53:31.075Z,22.37
2019-05-22T01:53:56.565Z,22.36
2019-05-22T01:54:22.569Z,22.35
2019-05-22T01:54:48.563Z,22.35
2019-05-22T01:55:14.068Z,22.35
2019-05-22T01:55:40.225Z,22.36
2019-05-22T01:56:07.996Z,22.35
2019-05-22T01:56:34.595Z,22.36
2019-05-22T01:57:07.112Z,22.35
2019-05-22T01:57:33.963Z,22.35
2019-05-22T01:57:59.447Z,22.36
2019-05-22T01:58:25.067Z,22.36
2019-05-22T01:58:50.605Z,22.35
2019-05-22T01:59:15.706Z,22.36
2019-05-22T01:59:42.684Z,22.36
2019-05-22T02:00:09.891Z,22.36
2019-05-22T02:00:35.145Z,22.36
2019-05-22T02:01:01.374Z,22.36
2019-05-22T02:01:27.337Z,22.36
2019-05-22T02:01:53.737Z,22.36
2019-05-22T02:02:22.141Z,22.35
2019-05-22T02:02:47.789Z,22.35
2019-05-22T02:03:14.339Z,22.36
2019-05-22T02:03:39.606Z,22.36
2019-05-22T02:04:05.891Z,22.36
2019-05-22T02:04:31.041Z,22.36
2019-05-22T02:04:56.612Z,22.36
2019-05-22T02:05:23.201Z,22.35
2019-05-22T02:05:48.702Z,22.36
2019-05-22T02:06:15.255Z,22.36
2019-05-22T02:06:40.472Z,22.36
2019-05-22T02:07:07.491Z,22.36
2019-05-22T02:07:32.715Z,22.37
2019-05-22T02:07:58.180Z,22.36
2019-05-22T02:08:24.752Z,22.36
2019-05-22T02:09:18.379Z,22.34
2019-05-22T02:09:44.805Z,22.35
2019-05-22T02:10:11.413Z,22.33
2019-05-22T02:10:40.771Z,22.33
2019-05-22T02:11:06.073Z,22.32
2019-05-22T02:11:31.582Z,22.32
2019-05-22T02:12:01.492Z,22.31
2019-05-22T02:12:50.896Z,22.29
2019-05-22T02:13:17.317Z,22.27
2019-05-22T02:13:47.141Z,22.26
2019-05-22T02:14:14.698Z,22.26
2019-05-22T02:14:41.536Z,22.24
2019-05-22T02:15:08.014Z,22.24
2019-05-22T02:15:34.301Z,22.24
2019-05-22T02:15:59.847Z,22.24
2019-05-22T02:16:25.187Z,22.22
2019-05-22T02:16:56.978Z,22.22
2019-05-22T02:17:18.983Z,22.23
2019-05-22T02:17:44.211Z,22.23
2019-05-22T02:18:14.572Z,22.23
2019-05-22T02:18:40.883Z,22.23
2019-05-22T02:19:07.851Z,22.23
2019-05-22T02:19:33.632Z,22.24
2019-05-22T02:19:59.235Z,22.24
2019-05-22T02:20:25.844Z,22.23
2019-05-22T02:20:52.423Z,22.24
2019-05-22T02:21:17.395Z,22.24
2019-05-22T02:21:43.126Z,22.25
2019-05-22T02:22:09.422Z,22.24
2019-05-22T02:22:35.956Z,22.25
2019-05-22T02:23:01.153Z,22.25
2019-05-22T02:23:26.172Z,22.25
2019-05-22T02:23:51.766Z,22.26
2019-05-22T02:24:18.534Z,22.24
2019-05-22T02:24:44.373Z,22.24
2019-05-22T02:25:10.220Z,22.25
2019-05-22T02:25:36.500Z,22.25
2019-05-22T02:26:05.476Z,22.24
2019-05-22T02:26:31.329Z,22.24
2019-05-22T02:26:56.574Z,22.26
2019-05-22T02:27:22.684Z,22.25
2019-05-22T02:27:48.646Z,22.26
2019-05-22T02:28:15.540Z,22.26
2019-05-22T02:28:40.753Z,22.25
2019-05-22T02:29:06.870Z,22.25
2019-05-22T02:29:32.436Z,22.25
2019-05-22T02:29:58.706Z,22.26
2019-05-22T02:30:25.285Z,22.26
2019-05-22T02:30:50.307Z,22.26
2019-05-22T02:31:19.605Z,22.27
2019-05-22T02:31:44.823Z,22.27
2019-05-22T02:32:12.045Z,22.27
2019-05-22T02:32:38.373Z,22.28
2019-05-22T02:33:05.224Z,22.27
2019-05-22T02:33:30.731Z,22.28
2019-05-22T02:34:02.990Z,22.27
2019-05-22T02:34:28.879Z,22.28
2019-05-22T02:34:54.880Z,22.27
2019-05-22T02:35:20.075Z,22.27
2019-05-22T02:35:45.601Z,22.28
2019-05-22T02:36:10.762Z,22.27
2019-05-22T02:36:37.807Z,22.27
2019-05-22T02:37:02.997Z,22.27
2019-05-22T02:37:29.345Z,22.26
2019-05-22T02:37:56.115Z,22.26
2019-05-22T02:38:22.842Z,22.27
2019-05-22T02:38:48.301Z,22.26
2019-05-22T02:39:28.681Z,22.25
2019-05-22T02:39:53.858Z,22.26
2019-05-22T02:40:33.331Z,22.26
2019-05-22T02:40:59.987Z,22.26
2019-05-22T02:41:26.384Z,22.25
2019-05-22T02:41:55.561Z,22.24
2019-05-22T02:42:29.522Z,22.25
2019-05-22T02:42:54.861Z,22.23
2019-05-22T02:43:19.676Z,22.24
2019-05-22T02:43:44.791Z,22.25
2019-05-22T02:44:10.017Z,22.23
2019-05-22T02:44:36.266Z,22.22
2019-05-22T02:45:02.025Z,22.22
2019-05-22T02:45:27.152Z,22.22
2019-05-22T02:45:52.414Z,22.22
2019-05-22T02:46:19.178Z,22.22
2019-05-22T02:46:44.089Z,22.23
2019-05-22T02:47:18.909Z,22.22
2019-05-22T02:47:38.038Z,22.23
2019-05-22T02:48:04.210Z,22.24
2019-05-22T02:48:30.498Z,22.24
2019-05-22T02:48:56.495Z,22.23
2019-05-22T02:49:23.717Z,22.23
2019-05-22T02:49:50.861Z,22.23
2019-05-22T02:50:16.977Z,22.24
2019-05-22T02:50:42.520Z,22.24
2019-05-22T02:51:07.757Z,22.24
2019-05-22T02:51:33.512Z,22.25
2019-05-22T02:51:59.425Z,22.24
2019-05-22T02:52:24.501Z,22.23
2019-05-22T02:52:51.283Z,22.23
2019-05-22T02:53:16.682Z,22.23
2019-05-22T02:53:41.511Z,22.23
2019-05-22T02:54:07.399Z,22.22
2019-05-22T02:54:33.204Z,22.22
2019-05-22T02:54:58.685Z,22.23
2019-05-22T02:55:24.189Z,22.22
2019-05-22T02:55:49.678Z,22.22
2019-05-22T02:56:15.476Z,22.21
2019-05-22T02:56:41.167Z,22.21
2019-05-22T02:57:07.366Z,22.20
2019-05-22T02:57:32.955Z,22.21
2019-05-22T02:57:58.274Z,22.21
2019-05-22T02:58:25.072Z,22.22
2019-05-22T02:58:50.137Z,22.22
2019-05-22T02:59:15.814Z,22.20
2019-05-22T02:59:40.992Z,22.20
2019-05-22T03:00:07.412Z,22.20
2019-05-22T03:00:42.056Z,22.19
2019-05-22T03:01:07.063Z,22.19
2019-05-22T03:01:32.319Z,22.17
2019-05-22T03:01:57.802Z,22.18
2019-05-22T03:02:24.660Z,22.18
2019-05-22T03:02:51.782Z,22.18
2019-05-22T03:03:17.309Z,22.17
2019-05-22T03:03:42.590Z,22.15
2019-05-22T03:04:08.878Z,22.17
2019-05-22T03:04:55.205Z,22.17
2019-05-22T03:05:20.765Z,22.17
2019-05-22T03:05:45.942Z,22.16
2019-05-22T03:06:12.519Z,22.17
2019-05-22T03:06:38.313Z,22.16
2019-05-22T03:07:04.823Z,22.15
2019-05-22T03:07:31.168Z,22.15
2019-05-22T03:07:56.079Z,22.14
2019-05-22T03:08:22.435Z,22.14
2019-05-22T03:09:00.274Z,22.13
2019-05-22T03:09:26.558Z,22.14
2019-05-22T03:09:52.581Z,22.15
2019-05-22T03:10:19.253Z,22.15
2019-05-22T03:10:44.766Z,22.14
2019-05-22T03:11:10.218Z,22.13
2019-05-22T03:11:37.767Z,22.14
2019-05-22T03:12:04.589Z,22.14
2019-05-22T03:12:31.634Z,22.14
2019-05-22T03:12:57.193Z,22.14
2019-05-22T03:13:25.295Z,22.15
2019-05-22T03:14:03.539Z,22.16
2019-05-22T03:14:28.951Z,22.15
2019-05-22T03:14:55.220Z,22.15
2019-05-22T03:15:22.552Z,22.15
2019-05-22T03:15:47.983Z,22.15
2019-05-22T03:16:13.089Z,22.15
2019-05-22T03:16:50.678Z,22.14
2019-05-22T03:17:28.493Z,22.15
2019-05-22T03:17:56.781Z,22.15
2019-05-22T03:18:22.212Z,22.14
2019-05-22T03:18:47.599Z,22.13
2019-05-22T03:19:14.172Z,22.13
2019-05-22T03:19:45.688Z,22.15
2019-05-22T03:20:16.762Z,22.12
2019-05-22T03:20:42.054Z,22.14
2019-05-22T03:21:07.472Z,22.13
2019-05-22T03:21:32.480Z,22.14
2019-05-22T03:21:57.964Z,22.13
2019-05-22T03:22:28.065Z,22.13
2019-05-22T03:23:19.731Z,22.14
2019-05-22T03:23:48.370Z,22.14
2019-05-22T03:24:13.582Z,22.15
2019-05-22T03:24:38.964Z,22.15
2019-05-22T03:25:05.343Z,22.15
2019-05-22T03:25:31.590Z,22.15
2019-05-22T03:25:56.998Z,22.14
2019-05-22T03:26:22.479Z,22.15
2019-05-22T03:26:47.650Z,22.16
2019-05-22T03:27:13.320Z,22.16
2019-05-22T03:27:43.991Z,22.15
2019-05-22T03:28:09.207Z,22.17
2019-05-22T03:28:35.181Z,22.17
2019-05-22T03:29:00.360Z,22.16
2019-05-22T03:29:40.136Z,22.18
2019-05-22T03:30:06.029Z,22.18
2019-05-22T03:30:34.156Z,22.18
2019-05-22T03:30:59.846Z,22.19
2019-05-22T03:31:25.443Z,22.19
2019-05-22T03:31:50.882Z,22.18
2019-05-22T03:32:16.067Z,22.19
2019-05-22T03:32:43.695Z,22.19
2019-05-22T03:33:08.778Z,22.18
2019-05-22T03:33:35.304Z,22.19
2019-05-22T03:34:00.782Z,22.19
2019-05-22T03:34:26.480Z,22.19
2019-05-22T03:34:52.072Z,22.18
2019-05-22T03:35:17.655Z,22.18
2019-05-22T03:35:44.876Z,22.20
2019-05-22T03:36:12.206Z,22.20
2019-05-22T03:36:37.489Z,22.19
2019-05-22T03:37:02.689Z,22.18
2019-05-22T03:37:28.717Z,22.20
2019-05-22T03:37:53.909Z,22.19
2019-05-22T03:38:19.706Z,22.20
2019-05-22T03:38:44.950Z,22.20
2019-05-22T03:39:11.814Z,22.18
2019-05-22T03:39:36.608Z,22.19
2019-05-22T03:40:01.860Z,22.20
2019-05-22T03:40:27.746Z,22.20
2019-05-22T03:40:53.719Z,22.20
2019-05-22T03:41:18.517Z,22.19
2019-05-22T03:41:44.000Z,22.20
2019-05-22T03:42:09.702Z,22.20
2019-05-22T03:42:36.539Z,22.20
2019-05-22T03:43:13.794Z,22.19
2019-05-22T03:43:39.338Z,22.20
2019-05-22T03:44:05.269Z,22.19
2019-05-22T03:44:30.762Z,22.19
2019-05-22T03:44:55.824Z,22.20
2019-05-22T03:45:22.813Z,22.19
2019-05-22T03:45:48.562Z,22.19
2019-05-22T03:46:33.973Z,22.19
2019-05-22T03:46:59.594Z,22.18
2019-05-22T03:47:26.186Z,22.17
2019-05-22T03:47:53.641Z,22.17
2019-05-22T03:48:20.582Z,22.16
2019-05-22T03:48:45.392Z,22.15
2019-05-22T03:49:28.106Z,22.14
2019-05-22T03:49:38.843Z,22.15
2019-05-22T03:50:07.077Z,22.14
2019-05-22T03:50:32.141Z,22.14
2019-05-22T03:50:58.866Z,22.13
2019-05-22T03:51:24.134Z,22.12
2019-05-22T03:51:50.520Z,22.13
2019-05-22T03:52:15.311Z,22.11
2019-05-22T03:52:40.832Z,22.11
2019-05-22T03:53:16.685Z,22.11
2019-05-22T03:53:42.359Z,22.11
2019-05-22T03:54:07.235Z,22.11
2019-05-22T03:54:33.038Z,22.09
2019-05-22T03:54:58.366Z,22.10
2019-05-22T03:55:23.538Z,22.11
2019-05-22T03:55:49.123Z,22.09
2019-05-22T03:56:15.981Z,22.09
2019-05-22T03:56:42.027Z,22.09
2019-05-22T03:57:07.469Z,22.09
2019-05-22T03:57:32.890Z,22.09
2019-05-22T03:57:58.085Z,22.11
2019-05-22T03:58:23.943Z,22.11
2019-05-22T03:58:49.212Z,22.12
2019-05-22T03:59:15.342Z,22.11
2019-05-22T03:59:41.226Z,22.11
2019-05-22T04:00:11.686Z,22.12
2019-05-22T04:00:42.957Z,22.12
2019-05-22T04:01:04.397Z,22.12
2019-05-22T04:01:30.112Z,22.13
2019-05-22T04:01:55.692Z,22.13
2019-05-22T04:02:20.894Z,22.11
2019-05-22T04:02:49.504Z,22.12
2019-05-22T04:03:16.660Z,22.13
2019-05-22T04:03:41.855Z,22.14
2019-05-22T04:04:08.126Z,22.13
2019-05-22T04:04:35.482Z,22.13
2019-05-22T04:05:01.075Z,22.13
2019-05-22T04:05:27.087Z,22.13
2019-05-22T04:05:53.345Z,22.12
2019-05-22T04:06:19.622Z,22.13
2019-05-22T04:06:45.248Z,22.11
2019-05-22T04:07:12.314Z,22.12
2019-05-22T04:07:39.009Z,22.12
2019-05-22T04:08:46.053Z,22.16
2019-05-22T04:09:20.871Z,22.12
2019-05-22T04:09:46.462Z,22.12
2019-05-22T04:10:12.799Z,22.13
2019-05-22T04:10:50.341Z,22.12
2019-05-22T04:11:15.523Z,22.12
2019-05-22T04:11:47.776Z,22.12
2019-05-22T04:12:13.957Z,22.12
2019-05-22T04:12:40.791Z,22.12
2019-05-22T04:13:06.949Z,22.12
2019-05-22T04:13:33.487Z,22.12
2019-05-22T04:13:58.973Z,22.11
2019-05-22T04:14:27.151Z,22.08
2019-05-22T04:14:53.235Z,22.10
2019-05-22T04:15:17.932Z,22.11
2019-05-22T04:15:43.111Z,22.10
2019-05-22T04:16:09.388Z,22.09
2019-05-22T04:16:34.968Z,22.11
2019-05-22T04:16:59.639Z,22.09
2019-05-22T04:17:26.063Z,22.09
2019-05-22T04:17:51.646Z,22.10
2019-05-22T04:18:17.014Z,22.11
2019-05-22T04:18:41.689Z,22.09
2019-05-22T04:19:08.669Z,22.08
2019-05-22T04:19:48.450Z,22.10
2019-05-22T04:20:01.681Z,22.10
2019-05-22T04:20:26.295Z,22.11
2019-05-22T04:20:51.707Z,22.12
2019-05-22T04:21:17.072Z,22.12
2019-05-22T04:21:43.034Z,22.12
2019-05-22T04:22:09.153Z,22.13
2019-05-22T04:22:34.616Z,22.13
2019-05-22T04:23:00.522Z,22.13
2019-05-22T04:23:26.007Z,22.12
2019-05-22T04:23:51.114Z,22.11
2019-05-22T04:24:16.319Z,22.12
2019-05-22T04:24:42.208Z,22.12
2019-05-22T04:25:08.739Z,22.13
2019-05-22T04:25:33.432Z,22.12
2019-05-22T04:25:59.589Z,22.14
2019-05-22T04:26:25.226Z,22.13
2019-05-22T04:26:51.039Z,22.13
2019-05-22T04:27:15.943Z,22.13
2019-05-22T04:27:42.270Z,22.16
2019-05-22T04:28:07.544Z,22.15
2019-05-22T04:28:32.741Z,22.15
2019-05-22T04:28:57.935Z,22.16
2019-05-22T04:29:23.161Z,22.15
2019-05-22T04:29:49.323Z,22.16
2019-05-22T04:30:15.175Z,22.14
2019-05-22T04:30:40.085Z,22.15
2019-05-22T04:31:05.301Z,22.16
2019-05-22T04:31:49.830Z,22.15
2019-05-22T04:32:16.194Z,22.16
2019-05-22T04:32:44.700Z,22.16
2019-05-22T04:33:10.183Z,22.16
2019-05-22T04:33:35.382Z,22.15
2019-05-22T04:34:00.618Z,22.15
2019-05-22T04:34:25.483Z,22.15
2019-05-22T04:34:50.953Z,22.14
2019-05-22T04:35:17.760Z,22.13
2019-05-22T04:35:43.706Z,22.14
2019-05-22T04:36:10.358Z,22.15
2019-05-22T04:36:36.325Z,22.13
2019-05-22T04:37:01.689Z,22.14
2019-05-22T04:37:27.294Z,22.15
2019-05-22T04:37:52.908Z,22.14
2019-05-22T04:38:19.160Z,22.14
2019-05-22T04:38:44.365Z,22.15
2019-05-22T04:39:13.691Z,22.15
2019-05-22T04:39:38.921Z,22.16
2019-05-22T04:40:16.420Z,22.15
2019-05-22T04:40:45.398Z,22.15
2019-05-22T04:41:11.136Z,22.15
2019-05-22T04:41:35.849Z,22.15
2019-05-22T04:42:02.407Z,22.16
2019-05-22T04:42:27.737Z,22.15
2019-05-22T04:42:53.424Z,22.15
2019-05-22T04:43:20.796Z,22.15
2019-05-22T04:43:46.279Z,22.14
2019-05-22T04:44:12.199Z,22.14
2019-05-22T04:44:37.401Z,22.15
2019-05-22T04:45:10.202Z,22.14
2019-05-22T04:45:35.490Z,22.14
2019-05-22T04:46:01.493Z,22.13
2019-05-22T04:46:26.748Z,22.14
2019-05-22T04:46:51.382Z,22.12
2019-05-22T04:47:17.238Z,22.13
2019-05-22T04:47:45.767Z,22.12
2019-05-22T04:48:11.244Z,22.13
2019-05-22T04:48:36.488Z,22.13
2019-05-22T04:49:02.627Z,22.13
2019-05-22T04:49:28.079Z,22.12
2019-05-22T04:50:06.633Z,22.13
2019-05-22T04:50:20.321Z,22.13
2019-05-22T04:50:46.827Z,22.12
2019-05-22T04:51:24.723Z,22.12
2019-05-22T04:51:49.926Z,22.12
2019-05-22T04:52:14.970Z,22.13
2019-05-22T04:52:40.348Z,22.12
2019-05-22T04:53:05.817Z,22.12
2019-05-22T04:53:31.231Z,22.15
2019-05-22T04:53:56.104Z,22.14
2019-05-22T04:54:21.368Z,22.14
2019-05-22T04:54:46.565Z,22.14
2019-05-22T04:55:12.058Z,22.14
2019-05-22T04:55:36.755Z,22.14
2019-05-22T04:56:01.971Z,22.15
2019-05-22T04:56:27.415Z,22.16
2019-05-22T04:56:52.985Z,22.16
2019-05-22T04:57:17.604Z,22.17
2019-05-22T04:57:42.881Z,22.17
2019-05-22T04:58:09.052Z,22.16
2019-05-22T04:58:34.248Z,22.17
2019-05-22T04:58:59.515Z,22.18
2019-05-22T04:59:24.746Z,22.17
2019-05-22T04:59:50.301Z,22.18
2019-05-22T05:00:17.371Z,22.19
2019-05-22T05:00:42.390Z,22.18
2019-05-22T05:01:08.144Z,22.19
2019-05-22T05:01:33.353Z,22.18
2019-05-22T05:01:58.829Z,22.19
2019-05-22T05:02:23.480Z,22.18
2019-05-22T05:02:48.939Z,22.20
2019-05-22T05:03:15.347Z,22.19
2019-05-22T05:03:41.233Z,22.20
2019-05-22T05:04:06.942Z,22.19
2019-05-22T05:04:32.383Z,22.19
2019-05-22T05:04:57.757Z,22.20
2019-05-22T05:05:24.507Z,22.20
2019-05-22T05:05:50.776Z,22.21
2019-05-22T05:06:17.031Z,22.20
2019-05-22T05:06:42.572Z,22.20
2019-05-22T05:07:09.036Z,22.20
2019-05-22T05:07:35.210Z,22.20
2019-05-22T05:08:00.588Z,22.20
2019-05-22T05:08:26.146Z,22.19
2019-05-22T05:08:52.086Z,22.19
2019-05-22T05:09:21.100Z,22.20
2019-05-22T05:09:45.963Z,22.21
2019-05-22T05:10:11.440Z,22.20
2019-05-22T05:10:36.698Z,22.20
2019-05-22T05:11:03.027Z,22.21
2019-05-22T05:11:27.750Z,22.21
2019-05-22T05:11:53.619Z,22.19
2019-05-22T05:12:18.831Z,22.19
2019-05-22T05:12:43.998Z,22.20
2019-05-22T05:13:09.305Z,22.20
2019-05-22T05:13:34.507Z,22.20
2019-05-22T05:13:59.764Z,22.20
2019-05-22T05:14:25.092Z,22.20
2019-05-22T05:14:50.662Z,22.20
2019-05-22T05:15:16.527Z,22.21
2019-05-22T05:15:41.889Z,22.20
2019-05-22T05:16:07.255Z,22.21
2019-05-22T05:16:32.467Z,22.21
2019-05-22T05:16:57.353Z,22.20
2019-05-22T05:17:22.415Z,22.21
2019-05-22T05:17:47.622Z,22.22
2019-05-22T05:18:13.751Z,22.21
2019-05-22T05:18:38.599Z,22.21
2019-05-22T05:19:03.685Z,22.21
2019-05-22T05:19:28.924Z,22.21
2019-05-22T05:19:54.128Z,22.22
2019-05-22T05:20:22.566Z,22.21
2019-05-22T05:20:45.979Z,22.21
2019-05-22T05:21:11.218Z,22.22
2019-05-22T05:21:37.830Z,22.21
2019-05-22T05:22:03.065Z,22.21
2019-05-22T05:22:46.664Z,22.21
2019-05-22T05:23:11.944Z,22.22
2019-05-22T05:23:37.150Z,22.21
2019-05-22T05:24:02.626Z,22.21
2019-05-22T05:24:27.254Z,22.20
2019-05-22T05:24:55.548Z,22.19
2019-05-22T05:25:20.120Z,22.18
2019-05-22T05:25:45.694Z,22.18
2019-05-22T05:26:10.310Z,22.18
2019-05-22T05:26:36.776Z,22.16
2019-05-22T05:27:02.654Z,22.16
2019-05-22T05:27:27.841Z,22.15
2019-05-22T05:27:52.525Z,22.15
2019-05-22T05:28:17.878Z,22.15
2019-05-22T05:28:43.691Z,22.14
2019-05-22T05:29:11.855Z,22.15
2019-05-22T05:29:36.958Z,22.14
2019-05-22T05:30:02.170Z,22.14
2019-05-22T05:30:28.136Z,22.13
2019-05-22T05:30:53.991Z,22.12
2019-05-22T05:31:20.831Z,22.14
2019-05-22T05:31:47.059Z,22.13
2019-05-22T05:32:12.398Z,22.12
2019-05-22T05:32:38.018Z,22.12
2019-05-22T05:33:04.298Z,22.13
2019-05-22T05:33:29.567Z,22.12
2019-05-22T05:34:19.321Z,22.12
2019-05-22T05:34:47.419Z,22.12
2019-05-22T05:35:13.483Z,22.11
2019-05-22T05:35:38.665Z,22.09
2019-05-22T05:36:04.292Z,22.10
2019-05-22T05:36:29.255Z,22.08
2019-05-22T05:36:55.529Z,22.07
2019-05-22T05:37:21.493Z,22.07
2019-05-22T05:37:46.750Z,22.07
2019-05-22T05:38:12.723Z,22.06
2019-05-22T05:38:39.095Z,22.06
2019-05-22T05:39:07.800Z,22.06
2019-05-22T05:39:40.673Z,22.05
2019-05-22T05:40:09.262Z,22.04
2019-05-22T05:40:40.046Z,22.06
2019-05-22T05:41:05.204Z,22.05
2019-05-22T05:41:31.155Z,22.06
2019-05-22T05:41:55.811Z,22.06
2019-05-22T05:42:20.987Z,22.06
2019-05-22T05:42:46.192Z,22.06
2019-05-22T05:43:12.315Z,22.06
2019-05-22T05:43:37.190Z,22.05
2019-05-22T05:44:03.137Z,22.05
2019-05-22T05:44:28.695Z,22.06
2019-05-22T05:44:53.904Z,22.06
2019-05-22T05:45:18.697Z,22.07
2019-05-22T05:45:44.722Z,22.07
2019-05-22T05:46:09.919Z,22.07
2019-05-22T05:46:35.101Z,22.07
2019-05-22T05:46:59.727Z,22.08
2019-05-22T05:47:24.946Z,22.07
2019-05-22T05:47:50.157Z,22.07
2019-05-22T05:48:17.768Z,22.06
2019-05-22T05:48:42.877Z,22.07